Baltimore, MD

5:18 PM EDT on July 05, 2015 (GMT -0400)
Garland | | Change Station
CLOSE
Current Station
Personal Weather Station
Location: Glen Burnie, MD
Elevation: 108 ft
Nearby Weather Stations

Elev 108 ft 39.19 °N, 76.64 °W | Updated 0 second ago

Mostly Cloudy
Mostly Cloudy
85.5 °F
Feels Like 90 °F
N
0.0
Wind Variable Wind from SW
Gusts 4.7 mph

Today
High -- | Low -- °F
--% Chance of Precip.
Yesterday
High -- | Low -- °F
Precip. -- in
5:46 AM 8:36 PM
Waning Gibbous, 82% visible
Pressure 30.10 in
Visibility 10.0 miles
Clouds Few 3000 ft
Scattered Clouds 4300 ft
Mostly Cloudy 25000 ft
Heat Index 90 °F
Dew Point 70 °F
Humidity 59%
Rainfall 0.00 in
Snow Depth Not available.
UV 3 out of 12
Pollen 3.90 out of 12
Air Quality Not available.
Flu Activity Not available.
METAR KBWI 052054Z 15004KT 10SM FEW030 SCT043 BKN250 28/20 A3010 RMK AO2 SLP191 T02780200 56013

More Conditions Fewer Conditions

Pressure 30.10 in
Visibility 10.0 miles
Clouds Few 3000 ft
Scattered Clouds 4300 ft
Mostly Cloudy 25000 ft
Heat Index 90 °F
Dew Point 70 °F
Humidity 59%
Rainfall 0.00 in
Snow Depth Not available.
UV 3 out of 12
Pollen 3.90 out of 12
Air Quality Not available.
Flu Activity Not available.
METAR KBWI 052054Z 15004KT 10SM FEW030 SCT043 BKN250 28/20 A3010 RMK AO2 SLP191 T02780200 56013

More Conditions Fewer Conditions

10-Day Weather Forecast

×

Almanac

Astronomy

Jul. 05, 2015 Rise Set
Actual Time
Civil Twilight
Nautical Twilight
Astronomical Twilight
Moon
Length of Visible Light
Length of Day
Tomorrow will be .
, % of the Moon is Illuminated

Today's Extremes

State Highs State Lows

Community

WunderPhotos

Upload Photos

1,835,393 photos uploaded!

WunderBlogs® & News

Nearby

Air Quality

  Air Quality AQ Index Pollutant
Not available.

Snow Depth

Station Depth Elevation

Earthquake Activity

City Distance Mag. Time & Date
Minimum magnitude displayed is 2.5.

Coastal Water Temperatures

Place Temperature

Stations

Nearby Weather Stations

Station Location Temp. Windchill Dew Point Humidity Wind Precip. Elev Updated Type